sensor_id;sensor_type;location;lat;lon;timestamp;temperature;humidity
37432;DHT22;23292;51.300;6.252;2024-01-10T00:01:56;-4.40;99.90
37432;DHT22;23292;51.300;6.252;2024-01-10T00:04:24;-4.40;99.90
37432;DHT22;23292;51.300;6.252;2024-01-10T00:06:50;-4.60;99.90
37432;DHT22;23292;51.300;6.252;2024-01-10T00:09:17;-4.50;99.90
37432;DHT22;23292;51.300;6.252;2024-01-10T00:11:44;-4.50;99.90
37432;DHT22;23292;51.300;6.252;2024-01-10T00:14:11;-4.40;99.90
37432;DHT22;23292;51.300;6.252;2024-01-10T00:16:39;-4.40;99.90
37432;DHT22;23292;51.300;6.252;2024-01-10T00:19:06;-4.30;99.90
37432;DHT22;23292;51.300;6.252;2024-01-10T00:21:33;-4.30;99.90
37432;DHT22;23292;51.300;6.252;2024-01-10T00:24:01;-4.40;99.90
37432;DHT22;23292;51.300;6.252;2024-01-10T00:26:28;-4.50;99.90
37432;DHT22;23292;51.300;6.252;2024-01-10T00:28:55;-4.50;99.90
37432;DHT22;23292;51.300;6.252;2024-01-10T00:31:30;-4.40;99.90
37432;DHT22;23292;51.300;6.252;2024-01-10T00:33:57;-4.50;99.90
37432;DHT22;23292;51.300;6.252;2024-01-10T00:36:24;-4.50;99.90
37432;DHT22;23292;51.300;6.252;2024-01-10T00:38:51;-4.40;99.90
37432;DHT22;23292;51.300;6.252;2024-01-10T00:41:17;-4.50;99.90
37432;DHT22;23292;51.300;6.252;2024-01-10T00:43:44;-4.50;99.90
37432;DHT22;23292;51.300;6.252;2024-01-10T00:46:11;-4.60;99.90
37432;DHT22;23292;51.300;6.252;2024-01-10T00:48:38;-4.70;99.90
37432;DHT22;23292;51.300;6.252;2024-01-10T00:51:05;-4.70;99.90
37432;DHT22;23292;51.300;6.252;2024-01-10T00:53:36;-4.60;99.90
37432;DHT22;23292;51.300;6.252;2024-01-10T00:56:05;-4.80;99.90
37432;DHT22;23292;51.300;6.252;2024-01-10T00:58:32;-4.80;99.90
37432;DHT22;23292;51.300;6.252;2024-01-10T01:00:59;-4.80;99.90
37432;DHT22;23292;51.300;6.252;2024-01-10T01:03:26;-4.80;99.90
37432;DHT22;23292;51.300;6.252;2024-01-10T01:05:53;-4.80;99.90
37432;DHT22;23292;51.300;6.252;2024-01-10T01:08:21;-4.80;99.90
37432;DHT22;23292;51.300;6.252;2024-01-10T01:10:47;-4.80;99.90
37432;DHT22;23292;51.300;6.252;2024-01-10T01:13:14;-4.90;99.90
37432;DHT22;23292;51.300;6.252;2024-01-10T01:15:41;-5.00;99.90
37432;DHT22;23292;51.300;6.252;2024-01-10T01:18:08;-5.10;99.90
37432;DHT22;23292;51.300;6.252;2024-01-10T01:20:37;-5.20;99.90
37432;DHT22;23292;51.300;6.252;2024-01-10T01:23:04;-5.00;99.90
37432;DHT22;23292;51.300;6.252;2024-01-10T01:25:31;-5.00;99.90
37432;DHT22;23292;51.300;6.252;2024-01-10T01:27:59;-4.80;99.90
37432;DHT22;23292;51.300;6.252;2024-01-10T01:30:25;-4.70;99.90
37432;DHT22;23292;51.300;6.252;2024-01-10T01:32:52;-4.80;99.90
37432;DHT22;23292;51.300;6.252;2024-01-10T01:35:19;-4.80;99.90
37432;DHT22;23292;51.300;6.252;2024-01-10T01:37:49;-4.80;99.90
37432;DHT22;23292;51.300;6.252;2024-01-10T01:40:18;-4.80;99.90
37432;DHT22;23292;51.300;6.252;2024-01-10T01:42:45;-4.90;99.90
37432;DHT22;23292;51.300;6.252;2024-01-10T01:45:13;-4.90;99.90
37432;DHT22;23292;51.300;6.252;2024-01-10T01:47:40;-5.00;99.90
37432;DHT22;23292;51.300;6.252;2024-01-10T01:50:08;-4.70;99.90
37432;DHT22;23292;51.300;6.252;2024-01-10T01:52:36;-4.70;99.90
37432;DHT22;23292;51.300;6.252;2024-01-10T01:55:06;-4.60;99.90
37432;DHT22;23292;51.300;6.252;2024-01-10T01:57:34;-4.60;99.90
37432;DHT22;23292;51.300;6.252;2024-01-10T02:00:01;-4.60;99.90
37432;DHT22;23292;51.300;6.252;2024-01-10T02:02:31;-4.60;99.90
37432;DHT22;23292;51.300;6.252;2024-01-10T02:04:58;-4.60;99.90
37432;DHT22;23292;51.300;6.252;2024-01-10T02:07:26;-4.70;99.90
37432;DHT22;23292;51.300;6.252;2024-01-10T02:09:53;-4.60;99.90
37432;DHT22;23292;51.300;6.252;2024-01-10T02:12:21;-4.70;99.90
37432;DHT22;23292;51.300;6.252;2024-01-10T02:14:48;-4.80;99.90
37432;DHT22;23292;51.300;6.252;2024-01-10T02:17:15;-4.80;99.90
37432;DHT22;23292;51.300;6.252;2024-01-10T02:19:42;-4.70;99.90
37432;DHT22;23292;51.300;6.252;2024-01-10T02:22:09;-4.70;99.90
37432;DHT22;23292;51.300;6.252;2024-01-10T02:24:37;-4.70;99.90
37432;DHT22;23292;51.300;6.252;2024-01-10T02:27:04;-4.70;99.90
37432;DHT22;23292;51.300;6.252;2024-01-10T02:29:31;-4.60;99.90
37432;DHT22;23292;51.300;6.252;2024-01-10T02:31:59;-4.60;99.90
37432;DHT22;23292;51.300;6.252;2024-01-10T02:34:26;-4.60;99.90
37432;DHT22;23292;51.300;6.252;2024-01-10T02:36:52;-4.70;99.90
37432;DHT22;23292;51.300;6.252;2024-01-10T02:39:19;-4.70;99.90
37432;DHT22;23292;51.300;6.252;2024-01-10T02:41:46;-4.70;99.90
37432;DHT22;23292;51.300;6.252;2024-01-10T02:44:13;-4.60;99.90
37432;DHT22;23292;51.300;6.252;2024-01-10T02:46:41;-4.60;99.90
37432;DHT22;23292;51.300;6.252;2024-01-10T02:49:08;-4.60;99.90
37432;DHT22;23292;51.300;6.252;2024-01-10T02:51:36;-4.70;99.90
37432;DHT22;23292;51.300;6.252;2024-01-10T02:54:03;-4.70;99.90
37432;DHT22;23292;51.300;6.252;2024-01-10T02:56:30;-4.50;99.90
37432;DHT22;23292;51.300;6.252;2024-01-10T02:58:57;-4.50;99.90
37432;DHT22;23292;51.300;6.252;2024-01-10T03:01:23;-4.60;99.90
37432;DHT22;23292;51.300;6.252;2024-01-10T03:03:50;-4.60;99.90
37432;DHT22;23292;51.300;6.252;2024-01-10T03:06:17;-4.60;99.90
37432;DHT22;23292;51.300;6.252;2024-01-10T03:08:44;-4.60;99.90
37432;DHT22;23292;51.300;6.252;2024-01-10T03:11:11;-4.60;99.90
37432;DHT22;23292;51.300;6.252;2024-01-10T03:13:40;-4.60;99.90
37432;DHT22;23292;51.300;6.252;2024-01-10T03:16:07;-4.60;99.90
37432;DHT22;23292;51.300;6.252;2024-01-10T03:18:33;-4.80;99.90
37432;DHT22;23292;51.300;6.252;2024-01-10T03:21:00;-4.90;99.90
37432;DHT22;23292;51.300;6.252;2024-01-10T03:23:28;-4.80;99.90
37432;DHT22;23292;51.300;6.252;2024-01-10T03:25:58;-4.80;99.90
37432;DHT22;23292;51.300;6.252;2024-01-10T03:28:26;-4.80;99.90
37432;DHT22;23292;51.300;6.252;2024-01-10T03:30:52;-5.00;99.90
37432;DHT22;23292;51.300;6.252;2024-01-10T03:33:19;-4.90;99.90
37432;DHT22;23292;51.300;6.252;2024-01-10T03:35:46;-4.80;99.90
37432;DHT22;23292;51.300;6.252;2024-01-10T03:38:13;-4.80;99.90
37432;DHT22;23292;51.300;6.252;2024-01-10T03:40:42;-4.90;99.90
37432;DHT22;23292;51.300;6.252;2024-01-10T03:43:09;-4.80;99.90
37432;DHT22;23292;51.300;6.252;2024-01-10T03:45:36;-4.80;99.90
37432;DHT22;23292;51.300;6.252;2024-01-10T03:48:04;-4.90;99.90
37432;DHT22;23292;51.300;6.252;2024-01-10T03:50:32;-4.90;99.90
37432;DHT22;23292;51.300;6.252;2024-01-10T03:52:59;-4.80;99.90
37432;DHT22;23292;51.300;6.252;2024-01-10T03:55:26;-4.80;99.90
37432;DHT22;23292;51.300;6.252;2024-01-10T03:57:52;-4.90;99.90
37432;DHT22;23292;51.300;6.252;2024-01-10T04:00:19;-5.00;99.90
37432;DHT22;23292;51.300;6.252;2024-01-10T04:02:46;-4.90;99.90
37432;DHT22;23292;51.300;6.252;2024-01-10T04:05:17;-4.80;99.90
37432;DHT22;23292;51.300;6.252;2024-01-10T04:07:44;-4.90;99.90
37432;DHT22;23292;51.300;6.252;2024-01-10T04:10:11;-4.90;99.90
37432;DHT22;23292;51.300;6.252;2024-01-10T04:12:40;-5.00;99.90
37432;DHT22;23292;51.300;6.252;2024-01-10T04:15:08;-5.00;99.90
37432;DHT22;23292;51.300;6.252;2024-01-10T04:17:35;-4.90;99.90
37432;DHT22;23292;51.300;6.252;2024-01-10T04:20:03;-4.90;99.90
37432;DHT22;23292;51.300;6.252;2024-01-10T04:22:30;-4.80;99.90
37432;DHT22;23292;51.300;6.252;2024-01-10T04:24:58;-4.80;99.90
37432;DHT22;23292;51.300;6.252;2024-01-10T04:27:26;-4.90;99.90
37432;DHT22;23292;51.300;6.252;2024-01-10T04:29:53;-5.00;99.90
37432;DHT22;23292;51.300;6.252;2024-01-10T04:32:20;-5.00;99.90
37432;DHT22;23292;51.300;6.252;2024-01-10T04:34:48;-4.90;99.90
37432;DHT22;23292;51.300;6.252;2024-01-10T04:37:15;-4.90;99.90
37432;DHT22;23292;51.300;6.252;2024-01-10T04:39:42;-5.00;99.90
37432;DHT22;23292;51.300;6.252;2024-01-10T04:42:11;-5.00;99.90
37432;DHT22;23292;51.300;6.252;2024-01-10T04:44:38;-5.00;99.90
37432;DHT22;23292;51.300;6.252;2024-01-10T04:47:05;-5.10;99.90
37432;DHT22;23292;51.300;6.252;2024-01-10T04:49:32;-5.00;99.90
37432;DHT22;23292;51.300;6.252;2024-01-10T04:51:59;-5.10;99.90
37432;DHT22;23292;51.300;6.252;2024-01-10T04:54:26;-5.10;99.90
37432;DHT22;23292;51.300;6.252;2024-01-10T04:56:53;-5.10;99.90
37432;DHT22;23292;51.300;6.252;2024-01-10T04:59:20;-5.00;99.90
37432;DHT22;23292;51.300;6.252;2024-01-10T05:01:47;-5.00;99.90
37432;DHT22;23292;51.300;6.252;2024-01-10T05:04:14;-5.10;99.90
37432;DHT22;23292;51.300;6.252;2024-01-10T05:06:41;-5.20;99.90
37432;DHT22;23292;51.300;6.252;2024-01-10T05:09:08;-5.30;99.90
37432;DHT22;23292;51.300;6.252;2024-01-10T05:11:37;-5.40;99.90
37432;DHT22;23292;51.300;6.252;2024-01-10T05:14:05;-5.30;99.90
37432;DHT22;23292;51.300;6.252;2024-01-10T05:16:31;-5.40;99.90
37432;DHT22;23292;51.300;6.252;2024-01-10T05:19:01;-5.40;99.90
37432;DHT22;23292;51.300;6.252;2024-01-10T05:21:31;-5.40;99.90
37432;DHT22;23292;51.300;6.252;2024-01-10T05:23:58;-5.40;99.90
37432;DHT22;23292;51.300;6.252;2024-01-10T05:26:25;-5.50;99.90
37432;DHT22;23292;51.300;6.252;2024-01-10T05:28:52;-5.50;99.90
37432;DHT22;23292;51.300;6.252;2024-01-10T05:31:19;-5.50;99.90
37432;DHT22;23292;51.300;6.252;2024-01-10T05:33:46;-5.40;99.90
37432;DHT22;23292;51.300;6.252;2024-01-10T05:36:13;-5.50;99.90
37432;DHT22;23292;51.300;6.252;2024-01-10T05:38:40;-5.60;99.90
37432;DHT22;23292;51.300;6.252;2024-01-10T05:41:08;-5.60;99.90
37432;DHT22;23292;51.300;6.252;2024-01-10T05:43:35;-5.60;99.90
37432;DHT22;23292;51.300;6.252;2024-01-10T05:46:02;-5.60;99.90
37432;DHT22;23292;51.300;6.252;2024-01-10T05:48:31;-5.60;99.90
37432;DHT22;23292;51.300;6.252;2024-01-10T05:50:58;-5.50;99.90
37432;DHT22;23292;51.300;6.252;2024-01-10T05:53:25;-5.50;99.90
37432;DHT22;23292;51.300;6.252;2024-01-10T05:55:52;-5.40;99.90
37432;DHT22;23292;51.300;6.252;2024-01-10T05:58:19;-5.40;99.90
37432;DHT22;23292;51.300;6.252;2024-01-10T06:00:47;-5.40;99.90
37432;DHT22;23292;51.300;6.252;2024-01-10T06:03:14;-5.40;99.90
37432;DHT22;23292;51.300;6.252;2024-01-10T06:05:41;-5.50;99.90
37432;DHT22;23292;51.300;6.252;2024-01-10T06:08:08;-5.40;99.90
37432;DHT22;23292;51.300;6.252;2024-01-10T06:10:35;-5.40;99.90
37432;DHT22;23292;51.300;6.252;2024-01-10T06:13:04;-5.40;99.90
37432;DHT22;23292;51.300;6.252;2024-01-10T06:15:31;-5.30;99.90
37432;DHT22;23292;51.300;6.252;2024-01-10T06:17:58;-5.30;99.90
37432;DHT22;23292;51.300;6.252;2024-01-10T06:20:25;-5.30;99.90
37432;DHT22;23292;51.300;6.252;2024-01-10T06:22:52;-5.30;99.90
37432;DHT22;23292;51.300;6.252;2024-01-10T06:25:19;-5.30;99.90
37432;DHT22;23292;51.300;6.252;2024-01-10T06:27:47;-5.30;99.90
37432;DHT22;23292;51.300;6.252;2024-01-10T06:30:14;-5.40;99.90
37432;DHT22;23292;51.300;6.252;2024-01-10T06:32:40;-5.40;99.90
37432;DHT22;23292;51.300;6.252;2024-01-10T06:35:07;-5.50;99.90
37432;DHT22;23292;51.300;6.252;2024-01-10T06:37:37;-5.60;99.90
37432;DHT22;23292;51.300;6.252;2024-01-10T06:40:05;-5.50;99.90
37432;DHT22;23292;51.300;6.252;2024-01-10T06:42:33;-5.50;99.90
37432;DHT22;23292;51.300;6.252;2024-01-10T06:45:00;-5.50;99.90
37432;DHT22;23292;51.300;6.252;2024-01-10T06:47:27;-5.40;99.90
37432;DHT22;23292;51.300;6.252;2024-01-10T06:49:54;-5.40;99.90
37432;DHT22;23292;51.300;6.252;2024-01-10T06:52:21;-5.50;99.90
37432;DHT22;23292;51.300;6.252;2024-01-10T06:54:48;-5.40;99.90
37432;DHT22;23292;51.300;6.252;2024-01-10T06:57:15;-5.40;99.90
37432;DHT22;23292;51.300;6.252;2024-01-10T06:59:42;-5.40;99.90
37432;DHT22;23292;51.300;6.252;2024-01-10T07:02:10;-5.40;99.90
37432;DHT22;23292;51.300;6.252;2024-01-10T07:04:37;-5.40;99.90
37432;DHT22;23292;51.300;6.252;2024-01-10T07:07:05;-5.50;99.90
37432;DHT22;23292;51.300;6.252;2024-01-10T07:09:32;-5.50;99.90
37432;DHT22;23292;51.300;6.252;2024-01-10T07:11:59;-5.60;99.90
37432;DHT22;23292;51.300;6.252;2024-01-10T07:14:26;-5.50;99.90
37432;DHT22;23292;51.300;6.252;2024-01-10T07:16:53;-5.40;99.90
37432;DHT22;23292;51.300;6.252;2024-01-10T07:19:23;-5.50;99.90
37432;DHT22;23292;51.300;6.252;2024-01-10T07:21:50;-5.50;99.90
37432;DHT22;23292;51.300;6.252;2024-01-10T07:24:18;-5.50;99.90
37432;DHT22;23292;51.300;6.252;2024-01-10T07:26:44;-5.40;99.90
37432;DHT22;23292;51.300;6.252;2024-01-10T07:29:11;-5.40;99.90
37432;DHT22;23292;51.300;6.252;2024-01-10T07:31:38;-5.40;99.90
37432;DHT22;23292;51.300;6.252;2024-01-10T07:34:07;-5.40;99.90
37432;DHT22;23292;51.300;6.252;2024-01-10T07:36:41;-5.30;99.90
37432;DHT22;23292;51.300;6.252;2024-01-10T07:39:09;-5.30;99.90
37432;DHT22;23292;51.300;6.252;2024-01-10T07:41:37;-5.30;99.90
37432;DHT22;23292;51.300;6.252;2024-01-10T07:44:05;-5.20;99.90
37432;DHT22;23292;51.300;6.252;2024-01-10T07:46:32;-5.20;99.90
37432;DHT22;23292;51.300;6.252;2024-01-10T07:49:01;-5.20;99.90
37432;DHT22;23292;51.300;6.252;2024-01-10T07:51:27;-5.30;99.90
37432;DHT22;23292;51.300;6.252;2024-01-10T07:53:55;-5.30;99.90
37432;DHT22;23292;51.300;6.252;2024-01-10T07:56:22;-5.30;99.90
37432;DHT22;23292;51.300;6.252;2024-01-10T07:58:49;-5.30;99.90
37432;DHT22;23292;51.300;6.252;2024-01-10T08:01:16;-5.30;99.90
37432;DHT22;23292;51.300;6.252;2024-01-10T08:03:44;-5.20;99.90
37432;DHT22;23292;51.300;6.252;2024-01-10T08:06:11;-5.30;99.90
37432;DHT22;23292;51.300;6.252;2024-01-10T08:08:52;-5.20;99.90
37432;DHT22;23292;51.300;6.252;2024-01-10T08:11:19;-5.30;99.90
37432;DHT22;23292;51.300;6.252;2024-01-10T08:13:46;-5.20;99.90
37432;DHT22;23292;51.300;6.252;2024-01-10T08:16:12;-5.20;99.90
37432;DHT22;23292;51.300;6.252;2024-01-10T08:18:41;-5.20;99.90
37432;DHT22;23292;51.300;6.252;2024-01-10T08:21:09;-5.20;99.90
37432;DHT22;23292;51.300;6.252;2024-01-10T08:23:35;-5.20;99.90
37432;DHT22;23292;51.300;6.252;2024-01-10T08:26:02;-5.10;99.90
37432;DHT22;23292;51.300;6.252;2024-01-10T08:28:29;-5.10;99.90
37432;DHT22;23292;51.300;6.252;2024-01-10T08:30:56;-5.10;99.90
37432;DHT22;23292;51.300;6.252;2024-01-10T08:33:30;-5.00;99.90
37432;DHT22;23292;51.300;6.252;2024-01-10T08:35:58;-5.00;99.90
37432;DHT22;23292;51.300;6.252;2024-01-10T08:38:25;-4.80;99.90
37432;DHT22;23292;51.300;6.252;2024-01-10T08:40:52;-4.80;99.90
37432;DHT22;23292;51.300;6.252;2024-01-10T08:43:19;-4.70;99.90
37432;DHT22;23292;51.300;6.252;2024-01-10T08:45:46;-4.70;99.90
37432;DHT22;23292;51.300;6.252;2024-01-10T08:48:13;-4.60;99.90
37432;DHT22;23292;51.300;6.252;2024-01-10T08:50:41;-4.60;99.90
37432;DHT22;23292;51.300;6.252;2024-01-10T08:53:08;-4.50;99.90
37432;DHT22;23292;51.300;6.252;2024-01-10T08:55:35;-4.40;99.90
37432;DHT22;23292;51.300;6.252;2024-01-10T08:58:04;-4.40;99.90
37432;DHT22;23292;51.300;6.252;2024-01-10T09:00:31;-4.30;99.90
37432;DHT22;23292;51.300;6.252;2024-01-10T09:02:58;-4.20;99.90
37432;DHT22;23292;51.300;6.252;2024-01-10T09:05:25;-4.20;99.90
37432;DHT22;23292;51.300;6.252;2024-01-10T09:07:52;-4.30;99.90
37432;DHT22;23292;51.300;6.252;2024-01-10T09:10:22;-4.20;99.90
37432;DHT22;23292;51.300;6.252;2024-01-10T09:12:49;-4.10;99.90
37432;DHT22;23292;51.300;6.252;2024-01-10T09:15:16;-4.00;99.90
37432;DHT22;23292;51.300;6.252;2024-01-10T09:17:44;-4.00;99.90
37432;DHT22;23292;51.300;6.252;2024-01-10T09:20:12;-3.90;99.90
37432;DHT22;23292;51.300;6.252;2024-01-10T09:22:39;-3.90;99.90
37432;DHT22;23292;51.300;6.252;2024-01-10T09:25:06;-3.80;99.90
37432;DHT22;23292;51.300;6.252;2024-01-10T09:27:34;-3.60;99.90
37432;DHT22;23292;51.300;6.252;2024-01-10T09:30:02;-3.70;99.90
37432;DHT22;23292;51.300;6.252;2024-01-10T09:32:29;-3.70;99.90
37432;DHT22;23292;51.300;6.252;2024-01-10T09:34:57;-3.50;99.90
37432;DHT22;23292;51.300;6.252;2024-01-10T09:37:25;-3.40;99.90
37432;DHT22;23292;51.300;6.252;2024-01-10T09:39:52;-3.40;99.90
37432;DHT22;23292;51.300;6.252;2024-01-10T09:42:20;-3.40;99.90
37432;DHT22;23292;51.300;6.252;2024-01-10T09:44:52;-3.30;99.90
37432;DHT22;23292;51.300;6.252;2024-01-10T09:47:20;-3.10;99.90
37432;DHT22;23292;51.300;6.252;2024-01-10T09:49:48;-3.00;99.90
37432;DHT22;23292;51.300;6.252;2024-01-10T09:52:27;-3.00;99.90
37432;DHT22;23292;51.300;6.252;2024-01-10T09:54:56;-3.00;99.90
37432;DHT22;23292;51.300;6.252;2024-01-10T09:57:24;-3.00;99.90
37432;DHT22;23292;51.300;6.252;2024-01-10T09:59:52;-3.20;99.90
37432;DHT22;23292;51.300;6.252;2024-01-10T10:02:19;-3.10;99.90
37432;DHT22;23292;51.300;6.252;2024-01-10T10:05:03;-3.10;99.90
37432;DHT22;23292;51.300;6.252;2024-01-10T10:07:49;-3.00;99.90
37432;DHT22;23292;51.300;6.252;2024-01-10T10:10:18;-2.80;99.90
37432;DHT22;23292;51.300;6.252;2024-01-10T10:12:47;-2.90;99.90
37432;DHT22;23292;51.300;6.252;2024-01-10T10:15:16;-2.90;99.90
37432;DHT22;23292;51.300;6.252;2024-01-10T10:17:47;-2.80;99.90
37432;DHT22;23292;51.300;6.252;2024-01-10T10:23:03;-2.70;99.90
37432;DHT22;23292;51.300;6.252;2024-01-10T10:25:35;-2.80;99.90
37432;DHT22;23292;51.300;6.252;2024-01-10T10:28:03;-2.50;99.90
37432;DHT22;23292;51.300;6.252;2024-01-10T10:30:32;-2.50;99.90
37432;DHT22;23292;51.300;6.252;2024-01-10T10:33:02;-2.40;99.90
37432;DHT22;23292;51.300;6.252;2024-01-10T10:35:29;-2.50;99.90
37432;DHT22;23292;51.300;6.252;2024-01-10T10:38:07;-2.30;99.90
37432;DHT22;23292;51.300;6.252;2024-01-10T10:40:36;-2.10;99.90
37432;DHT22;23292;51.300;6.252;2024-01-10T10:43:04;-2.00;99.90
37432;DHT22;23292;51.300;6.252;2024-01-10T10:45:33;-2.00;99.90
37432;DHT22;23292;51.300;6.252;2024-01-10T10:48:01;-2.00;99.90
37432;DHT22;23292;51.300;6.252;2024-01-10T10:50:34;-2.00;99.90
37432;DHT22;23292;51.300;6.252;2024-01-10T10:53:03;-1.90;99.90
37432;DHT22;23292;51.300;6.252;2024-01-10T10:55:31;-1.60;99.90
37432;DHT22;23292;51.300;6.252;2024-01-10T10:58:01;-1.60;99.90
37432;DHT22;23292;51.300;6.252;2024-01-10T11:00:38;-1.60;99.90
37432;DHT22;23292;51.300;6.252;2024-01-10T11:03:07;-1.60;99.90
37432;DHT22;23292;51.300;6.252;2024-01-10T11:05:40;-1.60;99.90
37432;DHT22;23292;51.300;6.252;2024-01-10T11:08:10;-1.60;99.90
37432;DHT22;23292;51.300;6.252;2024-01-10T11:10:40;-1.50;99.90
37432;DHT22;23292;51.300;6.252;2024-01-10T11:24:41;-1.20;99.90
37432;DHT22;23292;51.300;6.252;2024-01-10T11:27:12;-1.00;99.90
37432;DHT22;23292;51.300;6.252;2024-01-10T11:29:40;-1.00;99.90
37432;DHT22;23292;51.300;6.252;2024-01-10T11:32:12;-1.00;99.90
37432;DHT22;23292;51.300;6.252;2024-01-10T11:34:50;-1.00;99.90
37432;DHT22;23292;51.300;6.252;2024-01-10T11:37:17;-0.90;99.90
37432;DHT22;23292;51.300;6.252;2024-01-10T11:39:44;-0.80;99.90
37432;DHT22;23292;51.300;6.252;2024-01-10T11:42:11;-0.80;99.90
37432;DHT22;23292;51.300;6.252;2024-01-10T11:44:48;-0.70;99.90
37432;DHT22;23292;51.300;6.252;2024-01-10T11:47:17;-0.60;99.90
37432;DHT22;23292;51.300;6.252;2024-01-10T11:49:56;-0.70;99.90
37432;DHT22;23292;51.300;6.252;2024-01-10T11:52:32;-0.70;99.90
37432;DHT22;23292;51.300;6.252;2024-01-10T11:55:00;-0.70;99.90
37432;DHT22;23292;51.300;6.252;2024-01-10T11:57:28;-0.60;99.90
37432;DHT22;23292;51.300;6.252;2024-01-10T11:59:58;-0.50;99.90
37432;DHT22;23292;51.300;6.252;2024-01-10T12:02:30;-0.40;99.90
37432;DHT22;23292;51.300;6.252;2024-01-10T12:04:57;-0.50;99.90
37432;DHT22;23292;51.300;6.252;2024-01-10T12:07:24;-0.50;99.90
37432;DHT22;23292;51.300;6.252;2024-01-10T12:09:52;-0.40;99.90
37432;DHT22;23292;51.300;6.252;2024-01-10T12:12:19;-0.40;99.90
37432;DHT22;23292;51.300;6.252;2024-01-10T12:14:46;-0.40;99.90
37432;DHT22;23292;51.300;6.252;2024-01-10T12:17:13;-0.40;99.90
37432;DHT22;23292;51.300;6.252;2024-01-10T12:19:40;-0.40;99.90
37432;DHT22;23292;51.300;6.252;2024-01-10T12:22:15;-0.40;99.90
37432;DHT22;23292;51.300;6.252;2024-01-10T12:24:44;-0.40;99.90
37432;DHT22;23292;51.300;6.252;2024-01-10T12:27:16;-0.30;99.90
37432;DHT22;23292;51.300;6.252;2024-01-10T12:29:48;-0.20;99.90
37432;DHT22;23292;51.300;6.252;2024-01-10T12:32:18;-0.30;99.90
37432;DHT22;23292;51.300;6.252;2024-01-10T12:34:46;-0.30;99.90
37432;DHT22;23292;51.300;6.252;2024-01-10T12:37:13;-0.30;99.90
37432;DHT22;23292;51.300;6.252;2024-01-10T12:39:40;-0.30;99.90
37432;DHT22;23292;51.300;6.252;2024-01-10T12:42:07;-0.20;99.90
37432;DHT22;23292;51.300;6.252;2024-01-10T12:44:34;-0.20;99.90
37432;DHT22;23292;51.300;6.252;2024-01-10T12:47:01;-0.40;99.90
37432;DHT22;23292;51.300;6.252;2024-01-10T12:49:30;-0.30;99.90
37432;DHT22;23292;51.300;6.252;2024-01-10T12:51:57;-0.30;99.90
37432;DHT22;23292;51.300;6.252;2024-01-10T12:54:24;-0.30;99.90
37432;DHT22;23292;51.300;6.252;2024-01-10T12:56:52;-0.30;99.90
37432;DHT22;23292;51.300;6.252;2024-01-10T12:59:19;-0.30;99.90
37432;DHT22;23292;51.300;6.252;2024-01-10T13:01:46;-0.30;99.90
37432;DHT22;23292;51.300;6.252;2024-01-10T13:04:13;-0.30;99.90
37432;DHT22;23292;51.300;6.252;2024-01-10T13:06:40;-0.40;99.90
37432;DHT22;23292;51.300;6.252;2024-01-10T13:09:07;-0.40;99.90
37432;DHT22;23292;51.300;6.252;2024-01-10T13:11:34;-0.50;99.90
37432;DHT22;23292;51.300;6.252;2024-01-10T13:14:01;-0.50;99.90
37432;DHT22;23292;51.300;6.252;2024-01-10T13:16:28;-0.50;99.90
37432;DHT22;23292;51.300;6.252;2024-01-10T13:18:57;-0.50;99.90
37432;DHT22;23292;51.300;6.252;2024-01-10T13:21:25;-0.50;99.90
37432;DHT22;23292;51.300;6.252;2024-01-10T13:23:53;-0.50;99.90
37432;DHT22;23292;51.300;6.252;2024-01-10T13:26:20;-0.60;99.90
37432;DHT22;23292;51.300;6.252;2024-01-10T13:28:47;-0.60;99.90
37432;DHT22;23292;51.300;6.252;2024-01-10T13:31:14;-0.70;99.90
37432;DHT22;23292;51.300;6.252;2024-01-10T13:33:42;-0.80;99.90
37432;DHT22;23292;51.300;6.252;2024-01-10T13:36:13;-0.80;99.90
37432;DHT22;23292;51.300;6.252;2024-01-10T13:38:40;-0.80;99.90
37432;DHT22;23292;51.300;6.252;2024-01-10T13:41:07;-0.80;99.90
37432;DHT22;23292;51.300;6.252;2024-01-10T13:43:36;-0.90;99.90
37432;DHT22;23292;51.300;6.252;2024-01-10T13:46:03;-0.80;99.90
37432;DHT22;23292;51.300;6.252;2024-01-10T13:48:35;-0.80;99.90
37432;DHT22;23292;51.300;6.252;2024-01-10T13:51:02;-0.90;99.90
37432;DHT22;23292;51.300;6.252;2024-01-10T13:53:29;-1.00;99.90
37432;DHT22;23292;51.300;6.252;2024-01-10T13:55:56;-0.90;99.90
37432;DHT22;23292;51.300;6.252;2024-01-10T13:58:23;-0.90;99.90
37432;DHT22;23292;51.300;6.252;2024-01-10T14:00:50;-0.90;99.90
37432;DHT22;23292;51.300;6.252;2024-01-10T14:03:17;-0.90;99.90
37432;DHT22;23292;51.300;6.252;2024-01-10T14:05:44;-0.90;99.90
37432;DHT22;23292;51.300;6.252;2024-01-10T14:08:11;-0.90;99.90
37432;DHT22;23292;51.300;6.252;2024-01-10T14:10:39;-0.80;99.90
37432;DHT22;23292;51.300;6.252;2024-01-10T14:13:07;-0.80;99.90
37432;DHT22;23292;51.300;6.252;2024-01-10T14:15:33;-0.80;99.90
37432;DHT22;23292;51.300;6.252;2024-01-10T14:18:00;-0.80;99.90
37432;DHT22;23292;51.300;6.252;2024-01-10T14:20:28;-0.80;99.90
37432;DHT22;23292;51.300;6.252;2024-01-10T14:22:55;-0.80;99.90
37432;DHT22;23292;51.300;6.252;2024-01-10T14:25:22;-0.70;99.90
37432;DHT22;23292;51.300;6.252;2024-01-10T14:27:49;-0.70;99.90
37432;DHT22;23292;51.300;6.252;2024-01-10T14:30:16;-0.60;99.90
37432;DHT22;23292;51.300;6.252;2024-01-10T14:32:43;-0.50;99.90
37432;DHT22;23292;51.300;6.252;2024-01-10T14:35:14;-0.50;99.90
37432;DHT22;23292;51.300;6.252;2024-01-10T14:37:42;-0.30;99.90
37432;DHT22;23292;51.300;6.252;2024-01-10T14:40:10;-0.20;99.90
37432;DHT22;23292;51.300;6.252;2024-01-10T14:42:37;-0.20;99.90
37432;DHT22;23292;51.300;6.252;2024-01-10T14:45:05;-0.30;99.90
37432;DHT22;23292;51.300;6.252;2024-01-10T14:47:32;-0.30;99.90
37432;DHT22;23292;51.300;6.252;2024-01-10T14:49:59;-0.30;99.90
37432;DHT22;23292;51.300;6.252;2024-01-10T14:52:26;-0.40;99.90
37432;DHT22;23292;51.300;6.252;2024-01-10T14:54:53;-0.40;99.90
37432;DHT22;23292;51.300;6.252;2024-01-10T14:57:31;-0.50;99.90
37432;DHT22;23292;51.300;6.252;2024-01-10T14:59:58;-0.50;99.90
37432;DHT22;23292;51.300;6.252;2024-01-10T15:02:26;-0.50;99.90
37432;DHT22;23292;51.300;6.252;2024-01-10T15:04:53;-0.40;99.90
37432;DHT22;23292;51.300;6.252;2024-01-10T15:07:20;-0.20;99.90
37432;DHT22;23292;51.300;6.252;2024-01-10T15:09:47;-0.30;99.90
37432;DHT22;23292;51.300;6.252;2024-01-10T15:12:14;-0.20;99.90
37432;DHT22;23292;51.300;6.252;2024-01-10T15:14:41;-0.20;99.90
37432;DHT22;23292;51.300;6.252;2024-01-10T15:17:09;-0.30;99.90
37432;DHT22;23292;51.300;6.252;2024-01-10T15:19:38;-0.40;99.90
37432;DHT22;23292;51.300;6.252;2024-01-10T15:22:05;-0.50;99.90
37432;DHT22;23292;51.300;6.252;2024-01-10T15:24:32;-0.50;99.90
37432;DHT22;23292;51.300;6.252;2024-01-10T15:27:00;-0.50;99.90
37432;DHT22;23292;51.300;6.252;2024-01-10T15:29:29;-0.60;99.90
37432;DHT22;23292;51.300;6.252;2024-01-10T15:31:57;-0.60;99.90
37432;DHT22;23292;51.300;6.252;2024-01-10T15:34:25;-0.60;99.90
37432;DHT22;23292;51.300;6.252;2024-01-10T15:36:52;-0.70;99.90
37432;DHT22;23292;51.300;6.252;2024-01-10T15:39:19;-0.60;99.90
37432;DHT22;23292;51.300;6.252;2024-01-10T15:41:51;-0.80;99.90
37432;DHT22;23292;51.300;6.252;2024-01-10T15:44:19;-0.80;99.90
37432;DHT22;23292;51.300;6.252;2024-01-10T15:46:48;-0.90;99.90
37432;DHT22;23292;51.300;6.252;2024-01-10T15:49:16;-1.00;99.90